createdAt,value
2016-10-02T00:00:00.884Z,0
2016-10-02T00:00:41.417Z,0
2016-10-02T00:01:21.920Z,0
2016-10-02T00:02:02.457Z,0
2016-10-02T00:02:43.010Z,0
2016-10-02T00:03:23.527Z,0
2016-10-02T00:04:04.026Z,0
2016-10-02T00:04:44.527Z,0
2016-10-02T00:05:25.032Z,0
2016-10-02T00:06:05.556Z,0
2016-10-02T00:06:46.043Z,0
2016-10-02T00:07:26.557Z,0
2016-10-02T00:08:07.027Z,0
2016-10-02T00:08:47.616Z,0
2016-10-02T00:09:28.093Z,0
2016-10-02T00:10:08.607Z,0
2016-10-02T00:10:49.087Z,0
2016-10-02T00:11:29.608Z,0
2016-10-02T00:12:10.134Z,0
2016-10-02T00:12:50.619Z,0
2016-10-02T00:13:31.119Z,0
2016-10-02T00:14:11.635Z,0
2016-10-02T00:14:52.144Z,0
2016-10-02T00:15:32.652Z,0
2016-10-02T00:16:13.179Z,0
2016-10-02T00:16:53.656Z,0
2016-10-02T00:17:34.144Z,0
2016-10-02T00:18:14.673Z,0
2016-10-02T00:18:55.180Z,0
2016-10-02T00:19:35.700Z,0
2016-10-02T00:20:16.147Z,0
2016-10-02T00:20:56.653Z,0
2016-10-02T00:21:37.154Z,0
2016-10-02T00:22:17.658Z,0
2016-10-02T00:22:58.153Z,0
2016-10-02T00:23:38.697Z,0
2016-10-02T00:24:19.207Z,0
2016-10-02T00:24:59.750Z,0
2016-10-02T00:25:40.224Z,0
2016-10-02T00:26:20.738Z,0
2016-10-02T00:27:01.237Z,0
2016-10-02T00:27:41.760Z,0
2016-10-02T00:28:22.227Z,0
2016-10-02T00:29:02.753Z,0
2016-10-02T00:29:43.263Z,0
2016-10-02T00:30:23.739Z,0
2016-10-02T00:31:04.257Z,0
2016-10-02T00:31:44.795Z,0
2016-10-02T00:32:25.320Z,0
2016-10-02T00:33:05.837Z,0
2016-10-02T00:33:46.415Z,0
2016-10-02T00:34:26.940Z,0
2016-10-02T00:35:07.476Z,0
2016-10-02T00:35:47.969Z,0
2016-10-02T00:36:28.506Z,0
2016-10-02T00:37:08.994Z,0
2016-10-02T00:37:49.482Z,0
2016-10-02T00:38:29.979Z,0
2016-10-02T00:39:10.500Z,0
2016-10-02T00:39:50.973Z,0
2016-10-02T00:40:31.478Z,0
2016-10-02T00:41:11.988Z,0
2016-10-02T00:41:52.499Z,0
2016-10-02T00:42:33.066Z,0
2016-10-02T00:43:13.587Z,0
2016-10-02T00:43:54.143Z,0
2016-10-02T00:44:34.582Z,0
2016-10-02T00:45:15.102Z,0
2016-10-02T00:45:55.612Z,0
2016-10-02T00:46:36.132Z,0
2016-10-02T00:47:16.618Z,0
2016-10-02T00:47:57.137Z,0
2016-10-02T00:48:37.668Z,0
2016-10-02T00:49:18.166Z,0
2016-10-02T00:49:58.661Z,0
2016-10-02T00:50:39.173Z,0
2016-10-02T00:51:19.657Z,0
2016-10-02T00:52:00.142Z,0
2016-10-02T00:52:40.644Z,0
2016-10-02T00:53:21.160Z,0
2016-10-02T00:54:01.682Z,0
2016-10-02T00:54:42.247Z,0
2016-10-02T00:55:22.732Z,0
2016-10-02T00:56:03.254Z,0
2016-10-02T00:56:43.743Z,0
2016-10-02T00:57:24.247Z,0
2016-10-02T00:58:04.778Z,0
2016-10-02T00:58:45.292Z,0
2016-10-02T00:59:25.786Z,0
2016-10-02T01:00:06.297Z,0
2016-10-02T01:00:47.802Z,0
2016-10-02T01:01:28.319Z,0
2016-10-02T01:02:08.828Z,0
2016-10-02T01:02:49.350Z,0
2016-10-02T01:03:29.877Z,0
2016-10-02T01:04:10.403Z,0
2016-10-02T01:04:50.930Z,0
2016-10-02T01:05:31.457Z,0
2016-10-02T01:06:11.981Z,0
2016-10-02T01:06:52.494Z,0
2016-10-02T01:07:33.037Z,0
2016-10-02T01:08:13.551Z,0
2016-10-02T01:08:54.015Z,0
2016-10-02T01:09:34.534Z,0
2016-10-02T01:10:15.041Z,0
2016-10-02T01:10:55.551Z,0
2016-10-02T01:11:36.005Z,0
2016-10-02T01:12:16.531Z,0
2016-10-02T01:12:57.053Z,0
2016-10-02T01:13:37.582Z,0
2016-10-02T01:14:18.109Z,0
2016-10-02T01:14:58.648Z,0
2016-10-02T01:15:39.155Z,0
2016-10-02T01:16:19.661Z,0
2016-10-02T01:17:00.155Z,0
2016-10-02T01:17:40.642Z,0
2016-10-02T01:18:21.128Z,0
2016-10-02T01:19:01.625Z,0
2016-10-02T01:19:42.135Z,0
2016-10-02T01:20:22.678Z,0
2016-10-02T01:21:03.205Z,0
2016-10-02T01:21:43.745Z,0
2016-10-02T01:22:24.276Z,0
2016-10-02T01:23:04.813Z,0
2016-10-02T01:23:45.337Z,0
2016-10-02T01:24:25.851Z,0
2016-10-02T01:25:06.380Z,0
2016-10-02T01:25:46.850Z,0
2016-10-02T01:26:27.340Z,0
2016-10-02T01:27:07.827Z,0
2016-10-02T01:27:48.360Z,0
2016-10-02T01:28:28.830Z,0
2016-10-02T01:29:09.332Z,0
2016-10-02T01:29:49.841Z,0
2016-10-02T01:30:30.351Z,0
2016-10-02T01:31:10.808Z,0
2016-10-02T01:31:51.287Z,0
2016-10-02T01:32:31.775Z,0
2016-10-02T01:33:12.259Z,0
2016-10-02T01:33:52.797Z,0
2016-10-02T01:34:33.252Z,0
2016-10-02T01:35:13.773Z,0
2016-10-02T01:36:34.831Z,0
2016-10-02T01:37:15.346Z,0
2016-10-02T01:37:55.895Z,0
2016-10-02T01:38:36.426Z,0
2016-10-02T01:39:16.915Z,0
2016-10-02T01:39:57.418Z,0
2016-10-02T01:40:37.947Z,0
2016-10-02T01:41:18.451Z,0
2016-10-02T01:41:58.972Z,0
2016-10-02T01:42:39.477Z,0
2016-10-02T01:43:19.940Z,0
2016-10-02T01:44:00.439Z,0
2016-10-02T01:44:40.908Z,0
2016-10-02T01:45:21.381Z,0
2016-10-02T01:46:01.890Z,0
2016-10-02T01:46:42.381Z,0
2016-10-02T01:47:22.886Z,0
2016-10-02T01:48:03.409Z,0
2016-10-02T01:48:43.940Z,0
2016-10-02T01:49:24.454Z,0
2016-10-02T01:50:04.950Z,0
2016-10-02T01:50:45.487Z,0
2016-10-02T01:51:25.980Z,0
2016-10-02T01:52:06.515Z,0
2016-10-02T01:52:47.046Z,0
2016-10-02T01:53:27.592Z,0
2016-10-02T01:54:08.095Z,0
2016-10-02T01:54:48.639Z,0
2016-10-02T01:55:29.153Z,0
2016-10-02T01:56:09.651Z,0
2016-10-02T01:56:50.173Z,0
2016-10-02T01:57:30.691Z,0
2016-10-02T01:58:11.201Z,0
2016-10-02T01:58:51.739Z,0
2016-10-02T01:59:32.246Z,0
2016-10-02T02:00:12.784Z,0
2016-10-02T02:00:53.260Z,0
2016-10-02T02:01:33.789Z,0
2016-10-02T02:02:14.265Z,0
2016-10-02T02:02:54.782Z,0
2016-10-02T02:03:35.297Z,0
2016-10-02T02:04:15.814Z,0
2016-10-02T02:04:56.323Z,0
2016-10-02T02:05:36.843Z,0
2016-10-02T02:06:17.349Z,0
2016-10-02T02:06:57.898Z,0
2016-10-02T02:07:38.353Z,0
2016-10-02T02:08:18.871Z,0
2016-10-02T02:08:59.339Z,0
2016-10-02T02:09:39.856Z,0
2016-10-02T02:10:20.387Z,0
2016-10-02T02:11:00.958Z,0
2016-10-02T02:11:41.462Z,0
2016-10-02T02:12:22.017Z,0
2016-10-02T02:13:02.545Z,0
2016-10-02T02:13:43.061Z,0
2016-10-02T02:14:23.569Z,0
2016-10-02T02:15:04.078Z,0
2016-10-02T02:15:44.611Z,0
2016-10-02T02:16:25.285Z,0
2016-10-02T02:17:05.782Z,0
2016-10-02T02:17:46.317Z,0
2016-10-02T02:18:26.839Z,0
2016-10-02T02:19:07.340Z,0
2016-10-02T02:19:47.865Z,0
2016-10-02T02:20:28.363Z,0
2016-10-02T02:21:08.908Z,0
2016-10-02T02:21:49.411Z,0
2016-10-02T02:22:29.906Z,0
2016-10-02T02:23:10.404Z,0
2016-10-02T02:23:50.945Z,0
2016-10-02T02:24:31.421Z,0
2016-10-02T02:25:11.937Z,0
2016-10-02T02:25:52.426Z,0
2016-10-02T02:26:32.955Z,0
2016-10-02T02:27:13.432Z,0
2016-10-02T02:27:53.950Z,0
2016-10-02T02:28:34.466Z,0
2016-10-02T02:29:15.001Z,0
2016-10-02T02:29:55.604Z,0
2016-10-02T02:30:36.070Z,0
2016-10-02T02:31:16.592Z,0
2016-10-02T02:31:57.099Z,0
2016-10-02T02:32:37.646Z,0
2016-10-02T02:33:18.141Z,0
2016-10-02T02:33:58.659Z,0
2016-10-02T02:34:39.187Z,0
2016-10-02T02:35:19.730Z,0
2016-10-02T02:36:00.250Z,0
2016-10-02T02:36:40.760Z,0
2016-10-02T02:37:21.277Z,0
2016-10-02T02:38:01.812Z,0
2016-10-02T02:38:42.330Z,0
2016-10-02T02:39:22.847Z,0
2016-10-02T02:40:03.367Z,0
2016-10-02T02:40:43.907Z,0
2016-10-02T02:41:24.407Z,0
2016-10-02T02:42:04.950Z,0
2016-10-02T02:42:45.463Z,0
2016-10-02T02:43:26.040Z,0
2016-10-02T02:44:06.552Z,0
2016-10-02T02:44:47.104Z,0
2016-10-02T02:45:27.604Z,0
2016-10-02T02:46:08.134Z,0
2016-10-02T02:46:48.658Z,0
2016-10-02T02:47:29.188Z,0
2016-10-02T02:48:09.703Z,0
2016-10-02T02:48:50.250Z,0
2016-10-02T02:49:30.759Z,0
2016-10-02T02:50:11.263Z,0
2016-10-02T02:50:51.779Z,0
2016-10-02T02:51:32.321Z,0
2016-10-02T02:52:12.795Z,0
2016-10-02T02:52:53.306Z,0
2016-10-02T02:53:33.796Z,0
2016-10-02T02:54:14.318Z,0
2016-10-02T02:54:54.820Z,0
2016-10-02T02:55:35.343Z,0
2016-10-02T02:56:15.853Z,0
2016-10-02T02:56:56.369Z,0
2016-10-02T02:57:36.860Z,0
2016-10-02T02:58:17.357Z,0
2016-10-02T02:58:57.853Z,0
2016-10-02T02:59:38.389Z,0
2016-10-02T03:00:18.901Z,0
2016-10-02T03:00:59.440Z,0
2016-10-02T03:01:39.954Z,0
2016-10-02T03:02:20.454Z,0
2016-10-02T03:03:00.973Z,0
2016-10-02T03:03:41.472Z,0
2016-10-02T03:04:21.985Z,0
2016-10-02T03:05:02.492Z,0
2016-10-02T03:05:43.012Z,0
2016-10-02T03:06:23.529Z,0
2016-10-02T03:07:04.098Z,0
2016-10-02T03:07:44.606Z,0
2016-10-02T03:08:25.116Z,0
2016-10-02T03:09:05.632Z,0
2016-10-02T03:09:46.140Z,0
2016-10-02T03:10:26.660Z,0
2016-10-02T03:11:07.177Z,0
2016-10-02T03:11:47.693Z,0
2016-10-02T03:12:28.223Z,0
2016-10-02T03:13:08.722Z,0
2016-10-02T03:13:49.257Z,0
2016-10-02T03:14:29.773Z,0
2016-10-02T03:15:10.298Z,0
2016-10-02T03:15:50.807Z,0
2016-10-02T03:16:31.324Z,0
2016-10-02T03:17:11.845Z,0
2016-10-02T03:17:52.361Z,0
2016-10-02T03:18:32.858Z,0
2016-10-02T03:19:13.369Z,0
2016-10-02T03:19:53.884Z,0
2016-10-02T03:20:34.403Z,0
2016-10-02T03:21:14.913Z,0
2016-10-02T03:21:55.419Z,0
2016-10-02T03:22:35.909Z,0
2016-10-02T03:23:16.402Z,0
2016-10-02T03:23:56.954Z,0
2016-10-02T03:24:37.446Z,0
2016-10-02T03:25:17.954Z,0
2016-10-02T03:25:58.468Z,0
2016-10-02T03:26:38.973Z,0
2016-10-02T03:27:19.489Z,0
2016-10-02T03:28:00.001Z,0
2016-10-02T03:28:40.527Z,0
2016-10-02T03:29:21.044Z,0
2016-10-02T03:30:01.548Z,0
2016-10-02T03:30:42.070Z,0
2016-10-02T03:31:22.576Z,0
2016-10-02T03:32:03.117Z,0
2016-10-02T03:32:43.638Z,0
2016-10-02T03:33:24.127Z,0
2016-10-02T03:34:04.672Z,0
2016-10-02T03:34:45.203Z,0
2016-10-02T03:35:25.684Z,0
2016-10-02T03:36:06.193Z,0
2016-10-02T03:36:46.690Z,0
2016-10-02T03:37:27.204Z,0
2016-10-02T03:38:07.747Z,0
2016-10-02T03:38:48.276Z,0
2016-10-02T03:39:28.800Z,0
2016-10-02T03:40:09.325Z,0
2016-10-02T03:40:49.866Z,0
2016-10-02T03:41:30.355Z,0
2016-10-02T03:42:10.878Z,0
2016-10-02T03:42:51.410Z,0
2016-10-02T03:43:31.924Z,0
2016-10-02T03:44:12.449Z,0
2016-10-02T03:44:52.977Z,0
2016-10-02T03:45:33.504Z,0
2016-10-02T03:46:14.019Z,0
2016-10-02T03:46:54.550Z,0
2016-10-02T03:47:35.057Z,0
2016-10-02T03:48:15.566Z,0
2016-10-02T03:48:56.093Z,0
2016-10-02T03:49:36.590Z,0
2016-10-02T03:50:17.070Z,0
2016-10-02T03:50:57.561Z,0
2016-10-02T03:51:38.072Z,0
2016-10-02T03:52:18.571Z,0
2016-10-02T03:52:59.099Z,0
2016-10-02T03:53:39.608Z,0
2016-10-02T03:54:20.116Z,0
2016-10-02T03:55:00.624Z,0
2016-10-02T03:55:41.132Z,0
2016-10-02T03:56:21.638Z,0
2016-10-02T03:57:02.134Z,0
2016-10-02T03:57:42.636Z,0
2016-10-02T03:58:23.151Z,0
2016-10-02T03:59:03.644Z,0
2016-10-02T03:59:44.153Z,0
2016-10-02T04:00:24.693Z,0
2016-10-02T04:01:05.236Z,0
2016-10-02T04:01:45.751Z,0
2016-10-02T04:02:26.266Z,0
2016-10-02T04:03:06.775Z,0
2016-10-02T04:03:47.291Z,0
2016-10-02T04:04:27.831Z,0
2016-10-02T04:05:08.352Z,0
2016-10-02T04:05:48.873Z,0
2016-10-02T04:06:29.458Z,0
2016-10-02T04:07:09.992Z,0
2016-10-02T04:07:50.500Z,0
2016-10-02T04:08:31.023Z,0
2016-10-02T04:09:11.539Z,0
2016-10-02T04:09:52.077Z,0
2016-10-02T04:10:32.590Z,0
2016-10-02T04:11:13.107Z,0
2016-10-02T04:11:53.599Z,0
2016-10-02T04:12:34.111Z,0
2016-10-02T04:13:14.646Z,0
2016-10-02T04:13:55.163Z,0
2016-10-02T04:14:35.665Z,0
2016-10-02T04:15:16.162Z,0
2016-10-02T04:15:56.759Z,0
2016-10-02T04:16:37.269Z,0
2016-10-02T04:17:17.753Z,0
2016-10-02T04:17:58.255Z,0
2016-10-02T04:18:38.766Z,0
2016-10-02T04:19:19.286Z,0
2016-10-02T04:19:59.799Z,0
2016-10-02T04:20:40.298Z,0
2016-10-02T04:21:20.821Z,0
2016-10-02T04:22:01.310Z,0
2016-10-02T04:22:41.853Z,0
2016-10-02T04:23:22.356Z,0
2016-10-02T04:24:02.857Z,0
2016-10-02T04:24:43.363Z,0
2016-10-02T04:25:23.880Z,0
2016-10-02T04:26:04.411Z,0
2016-10-02T04:26:44.910Z,0
2016-10-02T04:27:25.441Z,0
2016-10-02T04:28:05.954Z,0
2016-10-02T04:28:46.488Z,0
2016-10-02T04:29:27.006Z,0
2016-10-02T04:30:07.534Z,0
2016-10-02T04:30:48.048Z,0
2016-10-02T04:31:28.585Z,0
2016-10-02T04:32:09.119Z,0
2016-10-02T04:32:49.624Z,0
2016-10-02T04:33:30.085Z,0
2016-10-02T04:34:10.639Z,0
2016-10-02T04:34:51.154Z,0
2016-10-02T04:35:31.665Z,0
2016-10-02T04:36:12.190Z,0
2016-10-02T04:36:52.719Z,0
2016-10-02T04:37:33.277Z,0
2016-10-02T04:38:13.726Z,0
2016-10-02T04:38:54.242Z,0
2016-10-02T04:39:34.740Z,0
2016-10-02T04:40:15.274Z,0
2016-10-02T04:40:56.426Z,0
2016-10-02T04:41:36.962Z,0
2016-10-02T04:42:17.471Z,0
2016-10-02T04:42:57.997Z,0
2016-10-02T04:43:38.486Z,0
2016-10-02T04:44:18.980Z,0
2016-10-02T04:44:59.539Z,0
2016-10-02T04:45:40.042Z,0
2016-10-02T04:46:20.593Z,0
2016-10-02T04:47:01.272Z,0
2016-10-02T04:47:41.761Z,0
2016-10-02T04:48:22.295Z,0
2016-10-02T04:49:02.797Z,0
2016-10-02T04:49:43.326Z,0
2016-10-02T04:50:23.843Z,0
2016-10-02T04:51:04.358Z,0
2016-10-02T04:51:44.870Z,0
2016-10-02T04:52:25.362Z,0
2016-10-02T04:53:05.986Z,0
2016-10-02T04:53:46.495Z,0
2016-10-02T04:54:26.992Z,0
2016-10-02T04:55:07.619Z,0
2016-10-02T04:55:48.121Z,0
2016-10-02T04:56:28.664Z,0
2016-10-02T04:57:09.160Z,0
2016-10-02T04:57:49.664Z,0
2016-10-02T04:58:30.181Z,0
2016-10-02T04:59:10.684Z,0
2016-10-02T04:59:51.230Z,0
2016-10-02T05:00:31.725Z,0
2016-10-02T05:01:12.240Z,0
2016-10-02T05:01:52.731Z,0
2016-10-02T05:02:33.250Z,0
2016-10-02T05:03:13.760Z,0
2016-10-02T05:03:54.265Z,0
2016-10-02T05:04:34.786Z,0
2016-10-02T05:05:15.324Z,0
2016-10-02T05:05:55.836Z,0
2016-10-02T05:06:36.379Z,0
2016-10-02T05:07:16.889Z,4
2016-10-02T05:07:57.396Z,4
2016-10-02T05:08:37.912Z,4
2016-10-02T05:09:18.458Z,4
2016-10-02T05:09:58.989Z,4
2016-10-02T05:10:39.497Z,4
2016-10-02T05:11:20.027Z,4
2016-10-02T05:12:00.571Z,4
2016-10-02T05:12:41.090Z,8
2016-10-02T05:13:21.593Z,4
2016-10-02T05:14:02.117Z,8
2016-10-02T05:14:42.640Z,8
2016-10-02T05:15:23.162Z,8
2016-10-02T05:16:03.684Z,12
2016-10-02T05:16:44.193Z,12
2016-10-02T05:17:24.690Z,12
2016-10-02T05:18:05.236Z,16
2016-10-02T05:18:45.697Z,20
2016-10-02T05:19:26.174Z,24
2016-10-02T05:20:06.694Z,20
2016-10-02T05:20:47.191Z,24
2016-10-02T05:21:27.673Z,28
2016-10-02T05:22:08.180Z,32
2016-10-02T05:22:48.672Z,36
2016-10-02T05:23:30.926Z,40
2016-10-02T05:24:11.439Z,48
2016-10-02T05:24:51.971Z,48
2016-10-02T05:25:32.494Z,56
2016-10-02T05:26:12.990Z,60
2016-10-02T05:26:53.495Z,64
2016-10-02T05:27:33.985Z,72
2016-10-02T05:28:14.480Z,84
2016-10-02T05:28:54.983Z,88
2016-10-02T05:29:35.506Z,96
2016-10-02T05:30:16.012Z,100
2016-10-02T05:30:56.501Z,112
2016-10-02T05:31:37.010Z,120
2016-10-02T05:32:17.513Z,132
2016-10-02T05:32:58.082Z,140
2016-10-02T05:33:38.584Z,148
2016-10-02T05:34:19.108Z,160
2016-10-02T05:34:59.603Z,172
2016-10-02T05:35:40.123Z,176
2016-10-02T05:36:20.622Z,188
2016-10-02T05:37:01.157Z,200
2016-10-02T05:37:41.666Z,212
2016-10-02T05:38:22.172Z,224
2016-10-02T05:39:02.699Z,232
2016-10-02T05:39:43.222Z,244
2016-10-02T05:40:23.738Z,260
2016-10-02T05:41:04.219Z,272
2016-10-02T05:41:44.723Z,288
2016-10-02T05:42:25.233Z,296
2016-10-02T05:43:05.711Z,312
2016-10-02T05:43:46.222Z,328
2016-10-02T05:44:26.731Z,344
2016-10-02T05:45:07.232Z,356
2016-10-02T05:45:47.735Z,368
2016-10-02T05:46:28.278Z,384
2016-10-02T05:47:08.792Z,400
2016-10-02T05:47:49.320Z,412
2016-10-02T05:48:29.817Z,428
2016-10-02T05:49:10.362Z,444
2016-10-02T05:49:50.845Z,460
2016-10-02T05:50:31.370Z,472
2016-10-02T05:51:11.885Z,488
2016-10-02T05:51:52.407Z,504
2016-10-02T05:52:32.912Z,516
2016-10-02T05:53:13.423Z,532
2016-10-02T05:53:53.916Z,548
2016-10-02T05:54:34.477Z,564
2016-10-02T05:55:14.967Z,576
2016-10-02T05:55:55.470Z,588
2016-10-02T05:56:35.982Z,608
2016-10-02T05:57:16.480Z,620
2016-10-02T05:57:56.983Z,636
2016-10-02T05:58:37.530Z,652
2016-10-02T05:59:18.011Z,660
2016-10-02T05:59:58.525Z,676
2016-10-02T06:00:39.064Z,692
2016-10-02T06:01:19.580Z,704
2016-10-02T06:02:00.224Z,716
2016-10-02T06:02:40.760Z,728
2016-10-02T06:03:21.263Z,740
2016-10-02T06:04:01.819Z,756
2016-10-02T06:04:42.308Z,768
2016-10-02T06:05:22.805Z,784
2016-10-02T06:06:03.335Z,792
2016-10-02T06:06:43.820Z,804
2016-10-02T06:07:24.313Z,820
2016-10-02T06:08:04.822Z,832
2016-10-02T06:08:45.290Z,844
2016-10-02T06:09:25.795Z,856
2016-10-02T06:10:06.306Z,872
2016-10-02T06:10:46.800Z,880
2016-10-02T06:11:27.310Z,896
2016-10-02T06:12:07.839Z,904
2016-10-02T06:12:48.358Z,916
2016-10-02T06:13:28.880Z,928
2016-10-02T06:14:09.386Z,940
2016-10-02T06:14:49.870Z,952
2016-10-02T06:15:30.364Z,960
2016-10-02T06:16:10.865Z,976
2016-10-02T06:16:51.369Z,988
2016-10-02T06:17:31.868Z,996
2016-10-02T06:18:14.060Z,1012
2016-10-02T06:18:54.531Z,1020
2016-10-02T06:19:35.055Z,1032
2016-10-02T06:20:15.546Z,1044
2016-10-02T06:20:56.046Z,1056
2016-10-02T06:21:36.548Z,1068
2016-10-02T06:22:17.044Z,1080
2016-10-02T06:22:57.563Z,1088
2016-10-02T06:23:38.056Z,1096
2016-10-02T06:24:18.580Z,1108
2016-10-02T06:24:59.081Z,1116
2016-10-02T06:25:39.593Z,1128
2016-10-02T06:26:20.135Z,1136
2016-10-02T06:27:00.683Z,1148
2016-10-02T06:27:41.168Z,1164
2016-10-02T06:28:21.657Z,1176
2016-10-02T06:29:02.182Z,1188
2016-10-02T06:29:42.712Z,1196
2016-10-02T06:30:23.232Z,1208
2016-10-02T06:31:03.737Z,1216
2016-10-02T06:31:44.238Z,1224
2016-10-02T06:32:24.739Z,1232
2016-10-02T06:33:05.228Z,1244
2016-10-02T06:33:45.752Z,1252
2016-10-02T06:34:26.236Z,1260
2016-10-02T06:35:06.767Z,1268
2016-10-02T06:35:47.257Z,1284
2016-10-02T06:36:27.756Z,1292
2016-10-02T06:37:08.260Z,1308
2016-10-02T06:37:48.771Z,1316
2016-10-02T06:38:29.293Z,1324
2016-10-02T06:39:09.775Z,1336
2016-10-02T06:39:50.268Z,1336
2016-10-02T06:40:30.797Z,1344
2016-10-02T06:41:11.347Z,1352
2016-10-02T06:41:51.890Z,1360
2016-10-02T06:42:32.392Z,1372
2016-10-02T06:43:12.926Z,1380
2016-10-02T06:43:53.433Z,1472
2016-10-02T06:44:33.971Z,1400
2016-10-02T06:45:14.490Z,1408
2016-10-02T06:45:55.000Z,1408
2016-10-02T06:46:35.531Z,1416
2016-10-02T06:47:16.039Z,1416
2016-10-02T06:47:56.555Z,1428
2016-10-02T06:48:37.081Z,1440
2016-10-02T06:49:17.604Z,1452
2016-10-02T06:49:58.139Z,1456
2016-10-02T06:50:38.648Z,1468
2016-10-02T06:51:19.154Z,1488
2016-10-02T06:51:59.688Z,1492
2016-10-02T06:52:40.189Z,1500
2016-10-02T06:53:20.719Z,1512
2016-10-02T06:54:01.194Z,1520
2016-10-02T06:54:41.721Z,1528
2016-10-02T06:55:22.235Z,1536
2016-10-02T06:56:02.723Z,1544
2016-10-02T06:56:43.257Z,1552
2016-10-02T06:57:23.859Z,1560
2016-10-02T06:58:04.346Z,1568
2016-10-02T06:58:44.899Z,1576
2016-10-02T06:59:25.453Z,1580
2016-10-02T07:00:06.026Z,1584
2016-10-02T07:00:46.453Z,1592
2016-10-02T07:01:26.984Z,1608
2016-10-02T07:02:07.522Z,1616
2016-10-02T07:02:48.120Z,1624
2016-10-02T07:03:28.625Z,1632
2016-10-02T07:04:09.197Z,1640
2016-10-02T07:04:49.747Z,1644
2016-10-02T07:05:30.349Z,1648
2016-10-02T07:06:11.087Z,1652
2016-10-02T07:06:51.582Z,1664
2016-10-02T07:07:32.119Z,1676
2016-10-02T07:08:12.628Z,1684
2016-10-02T07:08:53.176Z,1692
2016-10-02T07:09:33.678Z,1708
2016-10-02T07:10:14.217Z,1716
2016-10-02T07:10:54.709Z,1728
2016-10-02T07:11:35.212Z,1744
2016-10-02T07:12:15.883Z,1744
2016-10-02T07:12:56.358Z,1736
2016-10-02T07:13:36.922Z,1740
2016-10-02T07:14:17.441Z,1736
2016-10-02T07:14:57.975Z,1736
2016-10-02T07:15:38.510Z,1748
2016-10-02T07:16:19.064Z,1772
2016-10-02T07:16:59.585Z,1788
2016-10-02T07:17:40.213Z,1820
2016-10-02T07:18:20.727Z,1856
2016-10-02T07:19:01.259Z,1880
2016-10-02T07:19:41.774Z,1900
2016-10-02T07:20:22.292Z,1912
2016-10-02T07:21:02.848Z,1924
2016-10-02T07:21:43.370Z,1936
2016-10-02T07:22:23.882Z,1948
2016-10-02T07:23:04.364Z,1944
2016-10-02T07:23:44.981Z,1976
2016-10-02T07:24:25.477Z,1996
2016-10-02T07:25:06.004Z,2016
2016-10-02T07:25:46.603Z,2044
2016-10-02T07:26:27.203Z,2044
2016-10-02T07:27:08.066Z,2060
2016-10-02T07:27:48.399Z,2056
2016-10-02T07:28:28.957Z,2056
2016-10-02T07:29:09.527Z,2080
2016-10-02T07:29:50.061Z,2100
2016-10-02T07:30:30.606Z,2108
2016-10-02T07:31:11.120Z,2124
2016-10-02T07:31:51.661Z,2152
2016-10-02T07:32:32.184Z,2176
2016-10-02T07:33:12.720Z,2216
2016-10-02T07:33:53.276Z,2236
2016-10-02T07:34:33.803Z,2248
2016-10-02T07:35:14.395Z,2276
2016-10-02T07:35:54.879Z,2352
2016-10-02T07:36:35.396Z,2600
2016-10-02T07:37:15.972Z,3000
2016-10-02T07:37:56.445Z,3472
2016-10-02T07:38:36.936Z,4192
2016-10-02T07:39:17.449Z,5000
2016-10-02T07:39:57.960Z,5960
2016-10-02T07:40:38.475Z,6944
2016-10-02T07:41:18.999Z,7540
2016-10-02T07:41:59.489Z,8120
2016-10-02T07:42:39.983Z,8152
2016-10-02T07:43:20.511Z,8132
2016-10-02T07:44:00.999Z,8168
2016-10-02T07:44:41.471Z,7852
2016-10-02T07:45:22.037Z,7880
2016-10-02T07:46:02.554Z,7468
2016-10-02T07:46:43.126Z,7144
2016-10-02T07:47:23.707Z,6828
2016-10-02T07:48:04.155Z,6980
2016-10-02T07:48:44.683Z,7048
2016-10-02T07:49:25.223Z,7384
2016-10-02T07:50:05.794Z,7644
2016-10-02T07:50:46.337Z,7820
2016-10-02T07:51:26.843Z,8332
2016-10-02T07:52:07.391Z,8488
2016-10-02T07:52:47.930Z,8484
2016-10-02T07:53:28.478Z,9016
2016-10-02T07:54:09.021Z,9024
2016-10-02T07:54:49.578Z,9632
2016-10-02T07:55:30.201Z,9880
2016-10-02T07:56:11.428Z,9848
2016-10-02T07:56:52.007Z,9368
2016-10-02T07:57:32.449Z,8700
2016-10-02T07:58:12.978Z,8580
2016-10-02T07:58:53.501Z,8468
2016-10-02T07:59:34.134Z,7912
2016-10-02T08:00:14.653Z,7340
2016-10-02T08:00:55.177Z,6820
2016-10-02T08:01:35.705Z,6252
2016-10-02T08:02:16.213Z,5832
2016-10-02T08:02:56.764Z,5524
2016-10-02T08:03:37.372Z,5140
2016-10-02T08:04:17.896Z,4752
2016-10-02T08:04:58.406Z,4392
2016-10-02T08:05:38.956Z,4532
2016-10-02T08:06:19.461Z,4688
2016-10-02T08:06:59.978Z,4820
2016-10-02T08:07:40.621Z,5084
2016-10-02T08:08:21.151Z,5440
2016-10-02T08:09:01.677Z,5808
2016-10-02T08:09:42.235Z,6044
2016-10-02T08:10:22.764Z,5840
2016-10-02T08:11:03.285Z,5916
2016-10-02T08:11:43.923Z,5936
2016-10-02T08:12:24.420Z,5840
2016-10-02T08:13:05.005Z,5756
2016-10-02T08:13:45.553Z,5720
2016-10-02T08:14:26.582Z,5668
2016-10-02T08:15:07.590Z,5444
2016-10-02T08:15:48.040Z,5096
2016-10-02T08:16:28.585Z,4380
2016-10-02T08:17:09.140Z,4516
2016-10-02T08:17:49.681Z,4684
2016-10-02T08:18:30.254Z,4776
2016-10-02T08:19:10.751Z,4868
2016-10-02T08:19:51.260Z,4932
2016-10-02T08:20:31.791Z,5060
2016-10-02T08:21:12.295Z,5352
2016-10-02T08:21:52.869Z,5432
2016-10-02T08:22:33.392Z,5156
2016-10-02T08:23:13.924Z,5320
2016-10-02T08:23:54.471Z,5400
2016-10-02T08:24:34.993Z,5908
2016-10-02T08:25:15.510Z,6400
2016-10-02T08:25:56.016Z,6320
2016-10-02T08:26:36.549Z,6280
2016-10-02T08:27:17.102Z,5856
2016-10-02T08:27:57.642Z,5376
2016-10-02T08:28:38.178Z,5296
2016-10-02T08:29:18.700Z,5284
2016-10-02T08:29:59.204Z,5328
2016-10-02T08:30:39.718Z,4576
2016-10-02T08:31:20.230Z,3596
2016-10-02T08:32:00.752Z,3320
2016-10-02T08:32:41.310Z,2964
2016-10-02T08:33:21.848Z,2868
2016-10-02T08:34:02.383Z,2748
2016-10-02T08:34:43.617Z,2620
2016-10-02T08:35:24.196Z,2936
2016-10-02T08:36:04.878Z,3480
2016-10-02T08:36:45.668Z,4032
2016-10-02T08:37:26.093Z,4180
2016-10-02T08:38:06.658Z,4320
2016-10-02T08:38:48.693Z,4964
2016-10-02T08:39:29.177Z,5824
2016-10-02T08:40:09.717Z,6552
2016-10-02T08:40:50.267Z,8000
2016-10-02T08:41:30.848Z,9004
2016-10-02T08:42:11.319Z,8844
2016-10-02T08:42:51.809Z,9428
2016-10-02T08:43:32.337Z,12256
2016-10-02T08:44:12.872Z,12908
2016-10-02T08:44:53.429Z,9528
2016-10-02T08:45:33.931Z,7800
2016-10-02T08:46:14.429Z,6520
2016-10-02T08:46:55.020Z,3868
2016-10-02T08:47:35.646Z,3252
2016-10-02T08:48:17.268Z,3248
2016-10-02T08:48:57.732Z,3604
2016-10-02T08:49:38.374Z,4292
2016-10-02T08:50:18.903Z,4280
2016-10-02T08:50:59.466Z,3848
2016-10-02T08:51:39.930Z,4132
2016-10-02T08:52:20.441Z,3628
2016-10-02T08:53:00.939Z,3368
2016-10-02T08:53:41.539Z,3240
2016-10-02T08:54:22.095Z,3788
2016-10-02T08:55:02.565Z,4216
2016-10-02T08:55:43.087Z,4304
2016-10-02T08:56:23.560Z,4960
2016-10-02T08:57:04.203Z,5940
2016-10-02T08:57:44.625Z,7324
2016-10-02T08:58:25.116Z,9600
2016-10-02T08:59:05.614Z,11664
2016-10-02T08:59:46.122Z,9672
2016-10-02T09:00:26.624Z,9308
2016-10-02T09:01:07.123Z,10040
2016-10-02T09:01:47.662Z,9908
2016-10-02T09:02:28.140Z,9980
2016-10-02T09:03:08.620Z,8908
2016-10-02T09:03:49.123Z,9708
2016-10-02T09:04:29.625Z,10696
2016-10-02T09:05:10.110Z,10652
2016-10-02T09:05:50.643Z,10708
2016-10-02T09:06:31.117Z,9044
2016-10-02T09:07:11.631Z,8872
2016-10-02T09:07:52.137Z,9452
2016-10-02T09:08:32.659Z,9852
2016-10-02T09:09:13.199Z,9156
2016-10-02T09:09:53.727Z,8268
2016-10-02T09:10:34.267Z,7880
2016-10-02T09:11:14.778Z,7880
2016-10-02T09:11:55.331Z,8164
2016-10-02T09:12:35.869Z,7860
2016-10-02T09:13:16.375Z,7172
2016-10-02T09:13:56.885Z,6512
2016-10-02T09:14:37.396Z,7188
2016-10-02T09:15:17.919Z,7572
2016-10-02T09:15:58.397Z,7576
2016-10-02T09:16:38.911Z,7296
2016-10-02T09:17:19.425Z,7124
2016-10-02T09:17:59.932Z,6360
2016-10-02T09:18:40.465Z,5800
2016-10-02T09:19:20.959Z,5076
2016-10-02T09:20:01.457Z,4468
2016-10-02T09:20:41.998Z,4768
2016-10-02T09:21:22.480Z,5032
2016-10-02T09:22:03.017Z,5140
2016-10-02T09:22:43.616Z,4644
2016-10-02T09:23:24.135Z,3844
2016-10-02T09:24:04.701Z,3232
2016-10-02T09:24:45.221Z,2824
2016-10-02T09:25:25.752Z,3016
2016-10-02T09:26:06.280Z,4460
2016-10-02T09:26:46.869Z,6468
2016-10-02T09:27:27.443Z,7992
2016-10-02T09:28:07.985Z,8248
2016-10-02T09:28:48.457Z,7124
2016-10-02T09:29:29.035Z,6132
2016-10-02T09:30:09.891Z,5732
2016-10-02T09:30:50.641Z,5168
2016-10-02T09:31:31.333Z,4456
2016-10-02T09:32:11.894Z,3912
2016-10-02T09:32:52.433Z,3224
2016-10-02T09:33:32.966Z,2756